createdAt,value
2023-03-01T00:02:37.151Z,8.45
2023-03-01T00:06:41.583Z,6.53
2023-03-01T00:10:45.173Z,7.40
2023-03-01T00:14:50.563Z,8.93
2023-03-01T00:18:54.116Z,8.48
2023-03-01T00:22:58.611Z,7.60
2023-03-01T00:27:01.869Z,8.77
2023-03-01T00:31:06.663Z,7.35
2023-03-01T00:35:10.686Z,9.00
2023-03-01T00:39:17.806Z,7.03
2023-03-01T00:43:20.914Z,6.82
2023-03-01T00:47:24.380Z,9.50
2023-03-01T00:51:29.796Z,7.95
2023-03-01T00:55:34.450Z,10.52
2023-03-01T00:59:37.885Z,7.82
2023-03-01T01:03:41.146Z,8.18
2023-03-01T01:07:44.084Z,8.25
2023-03-01T01:11:51.121Z,7.07
2023-03-01T01:15:54.264Z,8.02
2023-03-01T01:19:57.303Z,8.43
2023-03-01T01:24:00.546Z,8.85
2023-03-01T01:28:05.761Z,8.20
2023-03-01T01:32:08.774Z,10.13
2023-03-01T01:36:12.379Z,7.88
2023-03-01T01:40:15.876Z,8.55
2023-03-01T01:44:23.274Z,8.32
2023-03-01T01:48:41.591Z,8.85
2023-03-01T01:52:45.148Z,9.90
2023-03-01T01:56:53.858Z,9.30
2023-03-01T02:00:58.321Z,10.73
2023-03-01T02:05:13.257Z,9.63
2023-03-01T02:09:19.132Z,10.00
2023-03-01T02:13:22.270Z,10.30
2023-03-01T02:17:27.460Z,11.30
2023-03-01T02:21:41.370Z,10.38
2023-03-01T02:25:53.164Z,10.50
2023-03-01T02:29:57.911Z,11.90
2023-03-01T02:34:01.191Z,13.13
2023-03-01T02:38:06.178Z,11.63
2023-03-01T02:42:12.674Z,12.85
2023-03-01T02:46:20.514Z,10.48
2023-03-01T02:50:55.780Z,11.95
2023-03-01T02:55:03.400Z,12.30
2023-03-01T02:59:07.659Z,11.77
2023-03-01T03:03:15.557Z,12.95
2023-03-01T03:07:19.166Z,12.10
2023-03-01T03:11:22.396Z,12.57
2023-03-01T03:15:26.699Z,12.10
2023-03-01T03:19:32.587Z,11.32
2023-03-01T03:23:36.953Z,10.75
2023-03-01T03:27:41.155Z,12.10
2023-03-01T03:31:44.074Z,11.60
2023-03-01T03:35:51.402Z,11.45
2023-03-01T03:39:55.869Z,11.07
2023-03-01T03:43:59.322Z,12.23
2023-03-01T03:48:02.675Z,9.80
2023-03-01T03:52:14.646Z,11.07
2023-03-01T03:56:17.557Z,12.70
2023-03-01T04:00:23.160Z,13.50
2023-03-01T04:04:26.086Z,11.38
2023-03-01T04:08:31.614Z,14.30
2023-03-01T04:12:35.288Z,13.68
2023-03-01T04:16:38.936Z,11.55
2023-03-01T04:20:41.964Z,12.63
2023-03-01T04:24:46.554Z,11.77
2023-03-01T04:28:51.781Z,12.57
2023-03-01T04:32:54.694Z,12.73
2023-03-01T04:36:58.513Z,12.00
2023-03-01T04:41:04.758Z,14.15
2023-03-01T04:45:14.267Z,13.43
2023-03-01T04:49:17.495Z,12.32
2023-03-01T04:53:21.477Z,13.63
2023-03-01T04:57:27.428Z,13.55
2023-03-01T05:01:30.473Z,11.77
2023-03-01T05:05:36.566Z,13.32
2023-03-01T05:09:39.795Z,15.48
2023-03-01T05:13:44.816Z,15.75
2023-03-01T05:17:48.475Z,13.30
2023-03-01T05:22:06.677Z,10.82
2023-03-01T05:26:25.906Z,13.18
2023-03-01T05:30:32.771Z,14.43
2023-03-01T05:34:38.056Z,12.38
2023-03-01T05:38:41.261Z,14.77
2023-03-01T05:42:46.065Z,12.65
2023-03-01T05:46:51.390Z,11.75
2023-03-01T05:50:54.424Z,14.85
2023-03-01T05:54:57.987Z,16.00
2023-03-01T05:59:01.640Z,14.68
2023-03-01T06:03:06.062Z,13.45
2023-03-01T06:07:09.466Z,14.10
2023-03-01T06:11:12.768Z,16.30
2023-03-01T06:15:18.212Z,13.02
2023-03-01T06:19:23.327Z,14.32
2023-03-01T06:23:26.725Z,14.60
2023-03-01T06:27:30.636Z,14.55
2023-03-01T06:31:33.577Z,13.32
2023-03-01T06:35:38.113Z,14.73
2023-03-01T06:39:41.464Z,15.10
2023-03-01T06:43:45.719Z,14.23
2023-03-01T06:47:49.172Z,15.07
2023-03-01T06:51:54.107Z,15.75
2023-03-01T06:55:57.978Z,16.58
2023-03-01T07:00:01.294Z,15.13
2023-03-01T07:04:04.357Z,16.60
2023-03-01T07:08:09.007Z,15.18
2023-03-01T07:12:12.159Z,18.33
2023-03-01T07:16:15.582Z,16.55
2023-03-01T07:20:26.957Z,21.67
2023-03-01T07:24:31.423Z,15.13
2023-03-01T07:28:37.290Z,15.00
2023-03-01T07:32:40.536Z,15.50
2023-03-01T07:36:44.379Z,16.20
2023-03-01T07:40:49.297Z,14.23
2023-03-01T07:44:52.652Z,15.73
2023-03-01T07:48:55.632Z,15.88
2023-03-01T07:52:58.966Z,15.02
2023-03-01T07:57:03.222Z,15.82
2023-03-01T08:01:14.981Z,15.88
2023-03-01T08:05:19.706Z,14.32
2023-03-01T08:09:25.693Z,14.95
2023-03-01T08:13:31.092Z,14.57
2023-03-01T08:17:34.021Z,14.00
2023-03-01T08:21:37.571Z,14.05
2023-03-01T08:25:40.810Z,13.27
2023-03-01T08:29:45.601Z,14.13
2023-03-01T08:33:51.820Z,14.20
2023-03-01T08:37:55.427Z,15.45
2023-03-01T08:41:59.291Z,13.02
2023-03-01T08:46:04.042Z,13.13
2023-03-01T08:50:08.147Z,13.23
2023-03-01T08:54:14.339Z,14.98
2023-03-01T08:58:17.282Z,10.95
2023-03-01T09:02:21.840Z,11.90
2023-03-01T09:06:24.976Z,14.23
2023-03-01T09:10:28.409Z,15.23
2023-03-01T09:14:31.800Z,13.35
2023-03-01T09:18:37.303Z,11.73
2023-03-01T09:22:40.221Z,13.43
2023-03-01T09:26:43.475Z,13.55
2023-03-01T09:30:46.454Z,11.57
2023-03-01T09:35:09.374Z,12.95
2023-03-01T09:39:12.787Z,13.15
2023-03-01T09:43:23.522Z,11.85
2023-03-01T09:47:33.004Z,13.52
2023-03-01T09:51:39.149Z,12.02
2023-03-01T09:55:46.513Z,11.77
2023-03-01T10:00:06.006Z,11.73
2023-03-01T10:04:26.872Z,11.95
2023-03-01T10:08:37.488Z,13.55
2023-03-01T10:12:45.042Z,12.10
2023-03-01T10:16:55.084Z,11.43
2023-03-01T10:21:01.942Z,10.32
2023-03-01T10:25:06.917Z,11.10
2023-03-01T10:29:11.622Z,12.07
2023-03-01T10:33:23.302Z,12.10
2023-03-01T10:37:28.485Z,10.32
2023-03-01T10:41:33.291Z,9.80
2023-03-01T10:45:39.793Z,9.30
2023-03-01T10:49:55.355Z,10.70
2023-03-01T10:53:58.439Z,10.02
2023-03-01T10:58:22.855Z,9.48
2023-03-01T11:02:30.884Z,8.82
2023-03-01T11:06:35.500Z,8.23
2023-03-01T11:10:39.159Z,8.60
2023-03-01T11:14:49.360Z,10.63
2023-03-01T11:18:59.434Z,8.20
2023-03-01T11:23:07.783Z,8.85
2023-03-01T11:27:21.694Z,8.88
2023-03-01T11:31:28.534Z,10.10
2023-03-01T11:35:34.641Z,8.95
2023-03-01T11:40:24.113Z,8.20
2023-03-01T11:44:31.941Z,8.38
2023-03-01T11:48:52.534Z,9.32
2023-03-01T11:53:06.991Z,9.13
2023-03-01T11:57:22.588Z,9.60
2023-03-01T12:01:45.115Z,8.18
2023-03-01T12:10:28.585Z,9.15
2023-03-01T12:14:44.624Z,7.95
2023-03-01T12:19:11.326Z,8.65
2023-03-01T12:23:37.642Z,8.50
2023-03-01T12:28:13.512Z,7.97
2023-03-01T12:32:37.568Z,8.18
2023-03-01T12:36:58.700Z,7.22
2023-03-01T12:41:18.402Z,8.68
2023-03-01T12:45:41.633Z,8.00
2023-03-01T12:49:50.752Z,7.35
2023-03-01T12:53:57.421Z,9.73
2023-03-01T12:58:11.749Z,8.15
2023-03-01T13:02:24.328Z,7.78
2023-03-01T13:06:43.472Z,8.63
2023-03-01T13:10:51.979Z,8.07
2023-03-01T13:14:56.600Z,9.25
2023-03-01T13:19:11.168Z,8.27
2023-03-01T13:23:27.622Z,8.80
2023-03-01T13:27:31.832Z,8.68
2023-03-01T13:32:03.071Z,8.20
2023-03-01T13:36:09.849Z,9.45
2023-03-01T13:40:46.586Z,9.27
2023-03-01T13:44:51.634Z,8.52
2023-03-01T13:48:59.030Z,9.15
2023-03-01T13:53:05.115Z,8.38
2023-03-01T13:57:08.300Z,8.90
2023-03-01T14:01:25.678Z,9.05
2023-03-01T14:05:29.413Z,8.85
2023-03-01T14:09:37.025Z,8.32
2023-03-01T14:13:54.658Z,8.88
2023-03-01T14:18:38.817Z,8.82
2023-03-01T14:22:46.045Z,8.75
2023-03-01T14:26:51.217Z,8.45
2023-03-01T14:30:56.572Z,8.70
2023-03-01T14:35:02.885Z,10.02
2023-03-01T14:39:19.615Z,8.90
2023-03-01T14:43:27.152Z,7.75
2023-03-01T14:47:33.218Z,7.47
2023-03-01T14:51:41.863Z,9.45
2023-03-01T14:55:48.797Z,7.63
2023-03-01T14:59:54.278Z,7.80
2023-03-01T15:03:57.713Z,7.25
2023-03-01T15:08:05.102Z,8.20
2023-03-01T15:12:38.172Z,7.18
2023-03-01T15:16:44.392Z,7.07
2023-03-01T15:20:48.117Z,8.02
2023-03-01T15:24:53.505Z,7.53
2023-03-01T15:29:00.326Z,6.43
2023-03-01T15:33:22.225Z,8.13
2023-03-01T15:37:41.929Z,7.07
2023-03-01T15:41:51.142Z,7.68
2023-03-01T15:45:59.707Z,7.55
2023-03-01T15:50:04.445Z,6.93
2023-03-01T15:54:14.088Z,7.00
2023-03-01T15:58:23.492Z,7.55
2023-03-01T16:02:26.869Z,8.25
2023-03-01T16:06:30.733Z,8.95
2023-03-01T16:10:35.070Z,8.18
2023-03-01T16:14:39.434Z,7.93
2023-03-01T16:18:42.882Z,8.73
2023-03-01T16:22:47.160Z,9.20
2023-03-01T16:26:50.543Z,8.23
2023-03-01T16:30:55.032Z,7.57
2023-03-01T16:34:58.285Z,8.70
2023-03-01T16:39:04.761Z,7.55
2023-03-01T16:43:09.139Z,7.38
2023-03-01T16:47:15.694Z,8.48
2023-03-01T16:51:19.590Z,8.35
2023-03-01T16:55:23.434Z,8.23
2023-03-01T16:59:26.449Z,8.27
2023-03-01T17:03:31.463Z,8.05
2023-03-01T17:07:35.529Z,8.18
2023-03-01T17:11:38.832Z,8.95
2023-03-01T17:15:42.388Z,9.20
2023-03-01T17:20:18.181Z,9.48
2023-03-01T17:24:21.199Z,8.50
2023-03-01T17:28:25.439Z,9.68
2023-03-01T17:32:28.650Z,9.35
2023-03-01T17:36:42.347Z,8.25
2023-03-01T17:40:47.202Z,8.68
2023-03-01T17:44:51.253Z,9.65
2023-03-01T17:48:54.290Z,8.05
2023-03-01T17:52:59.427Z,8.20
2023-03-01T17:57:02.570Z,9.93
2023-03-01T18:01:11.037Z,8.52
2023-03-01T18:05:14.168Z,11.40
2023-03-01T18:09:18.997Z,9.63
2023-03-01T18:13:21.931Z,8.70
2023-03-01T18:17:27.176Z,8.88
2023-03-01T18:21:31.220Z,9.45
2023-03-01T18:25:36.376Z,9.95
2023-03-01T18:29:39.426Z,9.73
2023-03-01T18:33:43.934Z,9.55
2023-03-01T18:37:47.256Z,10.07
2023-03-01T18:41:52.290Z,9.63
2023-03-01T18:45:59.092Z,10.48
2023-03-01T18:50:02.404Z,11.10
2023-03-01T18:54:05.687Z,9.27
2023-03-01T18:58:10.553Z,11.70
2023-03-01T19:02:15.745Z,10.02
2023-03-01T19:06:20.486Z,9.85
2023-03-01T19:10:23.874Z,9.00
2023-03-01T19:14:28.796Z,12.43
2023-03-01T19:18:32.155Z,10.88
2023-03-01T19:22:35.464Z,10.50
2023-03-01T19:26:41.851Z,11.88
2023-03-01T19:30:46.530Z,10.95
2023-03-01T19:34:50.134Z,10.48
2023-03-01T19:38:53.097Z,11.00
2023-03-01T19:42:56.645Z,10.23
2023-03-01T19:47:01.662Z,11.90
2023-03-01T19:51:05.466Z,10.75
2023-03-01T19:55:10.925Z,11.32
2023-03-01T19:59:15.494Z,12.05
2023-03-01T20:03:19.825Z,11.80
2023-03-01T20:07:23.388Z,11.65
2023-03-01T20:11:26.678Z,10.85
2023-03-01T20:15:31.030Z,13.95
2023-03-01T20:19:36.297Z,10.75
2023-03-01T20:23:41.836Z,11.52
2023-03-01T20:27:47.889Z,12.10
2023-03-01T20:31:51.012Z,11.85
2023-03-01T20:35:56.567Z,12.55
2023-03-01T20:39:59.749Z,11.55
2023-03-01T20:44:04.673Z,11.65
2023-03-01T20:48:09.899Z,12.00
2023-03-01T20:52:14.556Z,11.35
2023-03-01T20:56:20.454Z,11.23
2023-03-01T21:00:23.956Z,11.18
2023-03-01T21:04:27.512Z,12.40
2023-03-01T21:08:32.860Z,13.07
2023-03-01T21:12:36.174Z,12.02
2023-03-01T21:16:39.312Z,11.85
2023-03-01T21:20:43.198Z,12.25
2023-03-01T21:24:50.168Z,12.10
2023-03-01T21:28:57.271Z,12.13
2023-03-01T21:33:00.460Z,11.70
2023-03-01T21:37:04.136Z,12.38
2023-03-01T21:41:10.384Z,13.05
2023-03-01T21:45:13.259Z,10.80
2023-03-01T21:49:16.653Z,11.98
2023-03-01T21:53:19.549Z,12.27
2023-03-01T21:57:24.476Z,13.35
2023-03-01T22:01:29.924Z,14.45
2023-03-01T22:05:32.887Z,12.52
2023-03-01T22:09:36.537Z,15.43
2023-03-01T22:13:40.953Z,12.63
2023-03-01T22:17:44.224Z,12.05
2023-03-01T22:21:50.606Z,10.30
2023-03-01T22:25:53.550Z,11.30
2023-03-01T22:29:58.443Z,11.25
2023-03-01T22:34:02.263Z,15.65
2023-03-01T22:38:05.096Z,12.43
2023-03-01T22:42:08.438Z,13.77
2023-03-01T22:46:14.532Z,10.95
2023-03-01T22:50:18.402Z,11.30
2023-03-01T22:54:22.022Z,11.82
2023-03-01T22:58:25.528Z,12.95
2023-03-01T23:02:30.303Z,11.90
2023-03-01T23:06:35.062Z,11.95
2023-03-01T23:10:42.074Z,10.88
2023-03-01T23:14:45.880Z,12.45
2023-03-01T23:18:50.483Z,12.68
2023-03-01T23:22:53.368Z,12.55
2023-03-01T23:26:57.008Z,13.35
2023-03-01T23:31:02.498Z,10.57
2023-03-01T23:35:08.950Z,12.32
2023-03-01T23:39:13.593Z,10.82
2023-03-01T23:43:16.987Z,11.45
2023-03-01T23:47:19.994Z,10.73
2023-03-01T23:51:25.910Z,12.55
2023-03-01T23:55:30.164Z,11.10
2023-03-01T23:59:33.691Z,12.77
